createdAt,value
2018-02-20T00:00:15.925Z,-1.43
2018-02-20T00:01:15.882Z,-1.42
2018-02-20T00:02:15.869Z,-1.46
2018-02-20T00:03:15.856Z,-1.48
2018-02-20T00:04:15.841Z,-1.46
2018-02-20T00:05:15.827Z,-1.54
2018-02-20T00:06:15.814Z,-1.48
2018-02-20T00:07:15.799Z,-1.53
2018-02-20T00:08:15.784Z,-1.43
2018-02-20T00:09:15.772Z,-1.48
2018-02-20T00:10:15.775Z,-1.57
2018-02-20T00:11:15.743Z,-1.60
2018-02-20T00:12:15.740Z,-1.53
2018-02-20T00:13:15.721Z,-1.59
2018-02-20T00:14:15.701Z,-1.48
2018-02-20T00:15:15.687Z,-1.46
2018-02-20T00:16:15.676Z,-1.54
2018-02-20T00:17:15.661Z,-1.56
2018-02-20T00:18:15.655Z,-1.48
2018-02-20T00:19:15.636Z,-1.45
2018-02-20T00:20:15.618Z,-1.48
2018-02-20T00:21:15.610Z,-1.48
2018-02-20T00:22:15.594Z,-1.54
2018-02-20T00:23:15.579Z,-1.49
2018-02-20T00:24:15.566Z,-1.45
2018-02-20T00:25:15.551Z,-1.48
2018-02-20T00:26:15.540Z,-1.63
2018-02-20T00:27:15.527Z,-1.63
2018-02-20T00:28:15.510Z,-1.62
2018-02-20T00:29:15.495Z,-1.57
2018-02-20T00:30:15.483Z,-1.59
2018-02-20T00:31:15.470Z,-1.63
2018-02-20T00:32:15.456Z,-1.67
2018-02-20T00:33:15.445Z,-1.59
2018-02-20T00:34:15.428Z,-1.66
2018-02-20T00:35:15.419Z,-1.57
2018-02-20T00:36:15.397Z,-1.60
2018-02-20T00:37:15.395Z,-1.59
2018-02-20T00:38:15.373Z,-1.62
2018-02-20T00:39:15.359Z,-1.64
2018-02-20T00:40:15.336Z,-1.64
2018-02-20T00:41:15.332Z,-1.64
2018-02-20T00:42:15.325Z,-1.57
2018-02-20T00:43:15.327Z,-1.60
2018-02-20T00:44:15.289Z,-1.63
2018-02-20T00:45:15.274Z,-1.63
2018-02-20T00:46:15.268Z,-1.57
2018-02-20T00:47:15.250Z,-1.59
2018-02-20T00:48:15.232Z,-1.59
2018-02-20T00:49:15.220Z,-1.51
2018-02-20T00:50:15.212Z,-1.60
2018-02-20T00:51:15.190Z,-1.60
2018-02-20T00:52:15.180Z,-1.66
2018-02-20T00:53:15.167Z,-1.63
2018-02-20T00:54:15.153Z,-1.59
2018-02-20T00:55:15.134Z,-1.57
2018-02-20T00:56:15.121Z,-1.60
2018-02-20T00:57:15.110Z,-1.57
2018-02-20T00:58:15.097Z,-1.62
2018-02-20T00:59:15.081Z,-1.60
2018-02-20T01:00:15.075Z,-1.57
2018-02-20T01:01:15.056Z,-1.63
2018-02-20T01:02:15.043Z,-1.63
2018-02-20T01:03:15.025Z,-1.59
2018-02-20T01:04:15.023Z,-1.49
2018-02-20T01:05:15.002Z,-1.64
2018-02-20T01:06:14.986Z,-1.62
2018-02-20T01:07:14.974Z,-1.60
2018-02-20T01:08:14.948Z,-1.56
2018-02-20T01:09:14.937Z,-1.60
2018-02-20T01:10:14.928Z,-1.59
2018-02-20T01:11:14.917Z,-1.64
2018-02-20T01:12:14.903Z,-1.57
2018-02-20T01:13:14.889Z,-1.62
2018-02-20T01:14:14.875Z,-1.49
2018-02-20T01:15:14.860Z,-1.48
2018-02-20T01:16:14.854Z,-1.53
2018-02-20T01:17:14.835Z,-1.43
2018-02-20T01:18:14.817Z,-1.48
2018-02-20T01:19:14.804Z,-1.45
2018-02-20T01:20:14.791Z,-1.46
2018-02-20T01:21:14.774Z,-1.48
2018-02-20T01:22:14.811Z,-1.46
2018-02-20T01:23:14.754Z,-1.53
2018-02-20T01:24:14.736Z,-1.48
2018-02-20T01:25:14.723Z,-1.48
2018-02-20T01:26:14.711Z,-1.48
2018-02-20T01:27:14.696Z,-1.46
2018-02-20T01:28:14.683Z,-1.53
2018-02-20T01:29:14.690Z,-1.43
2018-02-20T01:30:14.656Z,-1.46
2018-02-20T01:31:14.685Z,-1.54
2018-02-20T01:32:14.628Z,-1.49
2018-02-20T01:33:14.621Z,-1.57
2018-02-20T01:34:14.604Z,-1.57
2018-02-20T01:35:14.589Z,-1.59
2018-02-20T01:36:14.588Z,-1.62
2018-02-20T01:37:14.569Z,-1.57
2018-02-20T01:38:14.547Z,-1.63
2018-02-20T01:39:14.532Z,-1.63
2018-02-20T01:40:14.549Z,-1.64
2018-02-20T01:41:14.506Z,-1.66
2018-02-20T01:42:14.495Z,-1.63
2018-02-20T01:43:14.468Z,-1.64
2018-02-20T01:44:14.465Z,-1.67
2018-02-20T01:45:14.453Z,-1.64
2018-02-20T01:46:14.442Z,-1.63
2018-02-20T01:47:14.418Z,-1.69
2018-02-20T01:48:14.412Z,-1.72
2018-02-20T01:49:14.390Z,-1.72
2018-02-20T01:50:14.377Z,-1.67
2018-02-20T01:51:14.365Z,-1.70
2018-02-20T01:52:14.352Z,-1.72
2018-02-20T01:53:14.336Z,-1.78
2018-02-20T01:54:14.329Z,-1.80
2018-02-20T01:55:14.311Z,-1.82
2018-02-20T01:56:14.301Z,-1.78
2018-02-20T01:57:14.279Z,-1.72
2018-02-20T01:58:14.267Z,-1.75
2018-02-20T01:59:14.256Z,-1.74
2018-02-20T02:00:14.240Z,-1.80
2018-02-20T02:01:14.264Z,-1.72
2018-02-20T02:02:14.230Z,-1.84
2018-02-20T02:03:14.199Z,-1.81
2018-02-20T02:04:14.183Z,-1.75
2018-02-20T02:05:14.174Z,-1.74
2018-02-20T02:06:14.160Z,-1.77
2018-02-20T02:07:14.147Z,-1.74
2018-02-20T02:08:14.129Z,-1.72
2018-02-20T02:09:14.115Z,-1.77
2018-02-20T02:10:14.107Z,-1.72
2018-02-20T02:11:14.087Z,-1.77
2018-02-20T02:12:14.071Z,-1.60
2018-02-20T02:13:14.061Z,-1.66
2018-02-20T02:14:14.040Z,-1.66
2018-02-20T02:15:14.032Z,-1.62
2018-02-20T02:16:14.016Z,-1.62
2018-02-20T02:17:14.005Z,-1.63
2018-02-20T02:18:13.991Z,-1.74
2018-02-20T02:19:13.976Z,-1.64
2018-02-20T02:20:13.973Z,-1.63
2018-02-20T02:21:13.950Z,-1.62
2018-02-20T02:22:13.932Z,-1.75
2018-02-20T02:23:13.925Z,-1.66
2018-02-20T02:24:13.903Z,-1.69
2018-02-20T02:25:13.892Z,-1.63
2018-02-20T02:26:13.900Z,-1.66
2018-02-20T02:27:13.857Z,-1.72
2018-02-20T02:28:13.855Z,-1.66
2018-02-20T02:29:13.838Z,-1.66
2018-02-20T02:30:13.824Z,-1.70
2018-02-20T02:31:13.809Z,-1.67
2018-02-20T02:32:13.808Z,-1.67
2018-02-20T02:33:13.778Z,-1.64
2018-02-20T02:34:13.767Z,-1.63
2018-02-20T02:35:13.754Z,-1.64
2018-02-20T02:36:13.738Z,-1.67
2018-02-20T02:37:13.723Z,-1.66
2018-02-20T02:38:13.715Z,-1.67
2018-02-20T02:39:13.695Z,-1.67
2018-02-20T02:40:13.690Z,-1.67
2018-02-20T02:41:13.672Z,-1.75
2018-02-20T02:42:13.661Z,-1.62
2018-02-20T02:43:13.641Z,-1.62
2018-02-20T02:44:13.629Z,-1.66
2018-02-20T02:45:13.611Z,-1.63
2018-02-20T02:46:13.598Z,-1.67
2018-02-20T02:47:13.585Z,-1.66
2018-02-20T02:48:13.573Z,-1.63
2018-02-20T02:49:13.551Z,-1.63
2018-02-20T02:50:13.551Z,-1.63
2018-02-20T02:51:13.532Z,-1.70
2018-02-20T02:52:13.515Z,-1.72
2018-02-20T02:53:13.501Z,-1.66
2018-02-20T02:54:13.492Z,-1.69
2018-02-20T02:55:13.474Z,-1.72
2018-02-20T02:56:13.463Z,-1.70
2018-02-20T02:57:13.459Z,-1.70
2018-02-20T02:58:13.432Z,-1.63
2018-02-20T02:59:13.421Z,-1.75
2018-02-20T03:00:13.405Z,-1.72
2018-02-20T03:01:13.391Z,-1.67
2018-02-20T03:02:13.377Z,-1.72
2018-02-20T03:03:13.363Z,-1.72
2018-02-20T03:04:13.351Z,-1.70
2018-02-20T03:05:13.340Z,-1.69
2018-02-20T03:06:13.320Z,-1.77
2018-02-20T03:07:13.344Z,-1.77
2018-02-20T03:08:13.295Z,-1.77
2018-02-20T03:09:13.280Z,-1.66
2018-02-20T03:10:13.264Z,-1.59
2018-02-20T03:11:13.266Z,-1.72
2018-02-20T03:12:13.238Z,-1.78
2018-02-20T03:13:13.224Z,-1.69
2018-02-20T03:14:13.209Z,-1.74
2018-02-20T03:15:13.203Z,-1.78
2018-02-20T03:16:13.185Z,-1.75
2018-02-20T03:17:13.166Z,-1.74
2018-02-20T03:18:13.156Z,-1.75
2018-02-20T03:19:13.143Z,-1.77
2018-02-20T03:20:13.134Z,-1.78
2018-02-20T03:21:13.113Z,-1.69
2018-02-20T03:22:13.097Z,-1.77
2018-02-20T03:23:13.084Z,-1.74
2018-02-20T03:24:13.071Z,-1.64
2018-02-20T03:25:13.074Z,-1.72
2018-02-20T03:26:13.045Z,-1.85
2018-02-20T03:27:13.030Z,-1.81
2018-02-20T03:28:13.013Z,-1.82
2018-02-20T03:29:13.005Z,-1.78
2018-02-20T03:30:12.991Z,-1.75
2018-02-20T03:31:12.973Z,-1.82
2018-02-20T03:32:12.964Z,-1.80
2018-02-20T03:33:12.956Z,-1.84
2018-02-20T03:34:12.936Z,-1.84
2018-02-20T03:35:12.918Z,-1.77
2018-02-20T03:36:12.904Z,-1.70
2018-02-20T03:37:12.884Z,-1.77
2018-02-20T03:38:12.879Z,-1.82
2018-02-20T03:39:12.865Z,-1.84
2018-02-20T03:40:12.848Z,-1.81
2018-02-20T03:41:12.834Z,-1.82
2018-02-20T03:42:12.822Z,-1.70
2018-02-20T03:43:12.807Z,-1.84
2018-02-20T03:44:12.795Z,-1.74
2018-02-20T03:45:12.779Z,-1.75
2018-02-20T03:46:12.765Z,-1.85
2018-02-20T03:47:12.752Z,-1.77
2018-02-20T03:48:12.738Z,-1.75
2018-02-20T03:49:12.718Z,-1.72
2018-02-20T03:50:12.711Z,-1.72
2018-02-20T03:51:12.690Z,-1.72
2018-02-20T03:52:12.681Z,-1.77
2018-02-20T03:53:12.666Z,-1.74
2018-02-20T03:54:12.651Z,-1.64
2018-02-20T03:55:12.653Z,-1.64
2018-02-20T03:56:12.624Z,-1.74
2018-02-20T03:57:12.613Z,-1.63
2018-02-20T03:58:12.632Z,-1.70
2018-02-20T03:59:12.581Z,-1.70
2018-02-20T04:00:12.569Z,-1.77
2018-02-20T04:01:12.552Z,-1.72
2018-02-20T04:02:12.542Z,-1.80
2018-02-20T04:03:12.527Z,-1.81
2018-02-20T04:04:12.515Z,-1.82
2018-02-20T04:05:12.511Z,-1.80
2018-02-20T04:06:12.489Z,-1.84
2018-02-20T04:07:12.474Z,-1.66
2018-02-20T04:08:12.456Z,-1.84
2018-02-20T04:09:12.445Z,-1.78
2018-02-20T04:10:12.450Z,-1.84
2018-02-20T04:11:12.422Z,-1.75
2018-02-20T04:12:12.402Z,-1.78
2018-02-20T04:13:12.389Z,-1.78
2018-02-20T04:14:12.426Z,-1.84
2018-02-20T04:15:12.364Z,-1.87
2018-02-20T04:16:12.346Z,-1.82
2018-02-20T04:17:12.344Z,-1.82
2018-02-20T04:18:12.320Z,-1.80
2018-02-20T04:19:12.306Z,-1.80
2018-02-20T04:20:12.291Z,-1.75
2018-02-20T04:21:12.277Z,-1.84
2018-02-20T04:22:12.263Z,-1.85
2018-02-20T04:23:12.283Z,-1.90
2018-02-20T04:24:12.237Z,-1.84
2018-02-20T04:25:12.219Z,-1.85
2018-02-20T04:26:12.205Z,-1.81
2018-02-20T04:27:12.192Z,-1.82
2018-02-20T04:28:12.178Z,-1.84
2018-02-20T04:29:12.168Z,-1.75
2018-02-20T04:30:12.147Z,-1.87
2018-02-20T04:31:12.131Z,-1.82
2018-02-20T04:32:12.127Z,-1.84
2018-02-20T04:33:12.111Z,-1.85
2018-02-20T04:34:12.103Z,-1.90
2018-02-20T04:35:12.082Z,-1.96
2018-02-20T04:36:12.072Z,-1.81
2018-02-20T04:37:12.053Z,-1.98
2018-02-20T04:38:12.037Z,-1.84
2018-02-20T04:39:12.035Z,-1.78
2018-02-20T04:40:12.014Z,-1.81
2018-02-20T04:41:11.999Z,-1.85
2018-02-20T04:42:11.989Z,-1.84
2018-02-20T04:43:12.001Z,-1.84
2018-02-20T04:44:11.957Z,-1.90
2018-02-20T04:45:11.967Z,-1.96
2018-02-20T04:46:11.925Z,-2.03
2018-02-20T04:47:11.912Z,-1.95
2018-02-20T04:48:11.898Z,-1.85
2018-02-20T04:49:11.902Z,-1.87
2018-02-20T04:50:11.869Z,-1.98
2018-02-20T04:51:11.853Z,-1.98
2018-02-20T04:52:11.846Z,-2.08
2018-02-20T04:53:11.827Z,-2.00
2018-02-20T04:54:11.832Z,-2.03
2018-02-20T04:55:11.799Z,-2.03
2018-02-20T04:56:11.784Z,-2.03
2018-02-20T04:57:11.769Z,-2.06
2018-02-20T04:58:11.761Z,-2.02
2018-02-20T04:59:11.756Z,-2.10
2018-02-20T05:00:11.748Z,-2.06
2018-02-20T05:01:11.726Z,-2.00
2018-02-20T05:02:11.701Z,-2.11
2018-02-20T05:03:11.686Z,-2.11
2018-02-20T05:04:11.724Z,-2.08
2018-02-20T05:05:12.687Z,-2.06
2018-02-20T05:06:11.712Z,-2.02
2018-02-20T05:07:11.647Z,-2.17
2018-02-20T05:08:11.642Z,-2.08
2018-02-20T05:09:11.617Z,-2.00
2018-02-20T05:10:11.599Z,-2.14
2018-02-20T05:11:11.584Z,-2.03
2018-02-20T05:12:11.560Z,-2.11
2018-02-20T05:13:11.580Z,-2.03
2018-02-20T05:14:11.563Z,-2.16
2018-02-20T05:15:11.528Z,-2.11
2018-02-20T05:16:11.531Z,-1.98
2018-02-20T05:17:11.504Z,-2.11
2018-02-20T05:18:11.487Z,-2.00
2018-02-20T05:19:11.514Z,-2.05
2018-02-20T05:20:11.526Z,-2.10
2018-02-20T05:21:11.440Z,-2.10
2018-02-20T05:22:11.445Z,-2.10
2018-02-20T05:23:11.401Z,-2.13
2018-02-20T05:24:11.389Z,-2.11
2018-02-20T05:25:11.370Z,-2.05
2018-02-20T05:26:11.360Z,-2.14
2018-02-20T05:27:11.364Z,-2.11
2018-02-20T05:28:11.328Z,-2.08
2018-02-20T05:29:11.321Z,-2.06
2018-02-20T05:30:11.317Z,-2.05
2018-02-20T05:31:11.284Z,-2.06
2018-02-20T05:32:11.277Z,-2.08
2018-02-20T05:33:11.256Z,-2.10
2018-02-20T05:34:11.243Z,-2.16
2018-02-20T05:35:11.229Z,-2.14
2018-02-20T05:36:11.213Z,-2.10
2018-02-20T05:37:11.201Z,-2.13
2018-02-20T05:38:11.186Z,-2.10
2018-02-20T05:39:11.173Z,-2.08
2018-02-20T05:40:11.689Z,-2.20
2018-02-20T05:41:11.717Z,-2.14
2018-02-20T05:42:11.685Z,-2.10
2018-02-20T05:43:11.163Z,-2.05
2018-02-20T05:44:11.139Z,-2.11
2018-02-20T05:45:11.090Z,-2.10
2018-02-20T05:46:11.083Z,-2.06
2018-02-20T05:47:11.077Z,-2.05
2018-02-20T05:48:11.080Z,-2.16
2018-02-20T05:49:11.028Z,-2.08
2018-02-20T05:50:11.012Z,-2.16
2018-02-20T05:51:10.998Z,-2.06
2018-02-20T05:52:10.988Z,-2.13
2018-02-20T05:53:10.982Z,-2.11
2018-02-20T05:54:10.957Z,-2.05
2018-02-20T05:55:10.939Z,-2.13
2018-02-20T05:56:10.972Z,-2.13
2018-02-20T05:57:10.927Z,-2.05
2018-02-20T05:58:10.898Z,-2.13
2018-02-20T05:59:10.884Z,-2.18
2018-02-20T06:00:10.871Z,-2.10
2018-02-20T06:01:10.858Z,-2.03
2018-02-20T06:02:10.845Z,-2.08
2018-02-20T06:03:10.854Z,-2.03
2018-02-20T06:04:10.816Z,-2.02
2018-02-20T06:05:10.805Z,-2.13
2018-02-20T06:06:10.785Z,-2.13
2018-02-20T06:07:10.765Z,-2.13
2018-02-20T06:08:10.757Z,-2.10
2018-02-20T06:09:10.739Z,-2.13
2018-02-20T06:10:10.727Z,-2.06
2018-02-20T06:11:10.719Z,-2.06
2018-02-20T06:12:10.733Z,-2.18
2018-02-20T06:13:10.681Z,-2.17
2018-02-20T06:14:10.670Z,-2.14
2018-02-20T06:15:10.657Z,-2.06
2018-02-20T06:16:10.639Z,-2.02
2018-02-20T06:17:10.632Z,-2.18
2018-02-20T06:18:10.612Z,-2.13
2018-02-20T06:19:10.606Z,-2.08
2018-02-20T06:20:10.599Z,-2.03
2018-02-20T06:21:10.568Z,-2.14
2018-02-20T06:22:10.554Z,-2.03
2018-02-20T06:23:10.586Z,-2.10
2018-02-20T06:24:10.522Z,-2.13
2018-02-20T06:25:10.522Z,-2.06
2018-02-20T06:26:10.496Z,-2.06
2018-02-20T06:27:10.508Z,-2.14
2018-02-20T06:28:10.471Z,-2.13
2018-02-20T06:29:10.472Z,-2.03
2018-02-20T06:30:10.443Z,-2.13
2018-02-20T06:31:10.477Z,-2.20
2018-02-20T06:32:10.410Z,-2.18
2018-02-20T06:33:10.420Z,-2.14
2018-02-20T06:34:10.381Z,-2.21
2018-02-20T06:35:10.373Z,-2.11
2018-02-20T06:36:10.365Z,-2.11
2018-02-20T06:37:10.368Z,-2.06
2018-02-20T06:38:10.340Z,-2.13
2018-02-20T06:39:10.327Z,-2.16
2018-02-20T06:40:10.310Z,-2.05
2018-02-20T06:41:10.286Z,-2.17
2018-02-20T06:42:10.268Z,-2.11
2018-02-20T06:43:10.256Z,-2.13
2018-02-20T06:44:10.239Z,-2.16
2018-02-20T06:45:10.224Z,-2.10
2018-02-20T06:46:10.213Z,-2.11
2018-02-20T06:47:10.198Z,-2.03
2018-02-20T06:48:10.188Z,-2.13
2018-02-20T06:49:10.168Z,-2.13
2018-02-20T06:50:10.158Z,-2.16
2018-02-20T06:51:10.146Z,-2.14
2018-02-20T06:52:10.125Z,-2.16
2018-02-20T06:53:10.110Z,-2.18
2018-02-20T06:54:10.100Z,-2.20
2018-02-20T06:55:10.090Z,-2.08
2018-02-20T06:56:10.078Z,-2.17
2018-02-20T06:57:10.055Z,-2.11
2018-02-20T06:58:10.040Z,-2.11
2018-02-20T06:59:10.032Z,-2.02
2018-02-20T07:00:10.010Z,-2.02
2018-02-20T07:01:09.988Z,-2.11
2018-02-20T07:02:09.986Z,-2.14
2018-02-20T07:03:09.970Z,-1.99
2018-02-20T07:04:09.984Z,-2.11
2018-02-20T07:05:09.946Z,-2.08
2018-02-20T07:06:09.926Z,-2.03
2018-02-20T07:07:09.913Z,-1.99
2018-02-20T07:08:09.898Z,-2.11
2018-02-20T07:09:09.891Z,-2.13
2018-02-20T07:10:09.871Z,-2.05
2018-02-20T07:11:09.857Z,-2.05
2018-02-20T07:12:09.902Z,-2.03
2018-02-20T07:13:09.830Z,-2.02
2018-02-20T07:14:09.813Z,-2.05
2018-02-20T07:15:09.806Z,-2.10
2018-02-20T07:16:09.787Z,-2.03
2018-02-20T07:17:09.766Z,-1.90
2018-02-20T07:18:09.749Z,-2.06
2018-02-20T07:19:09.743Z,-2.03
2018-02-20T07:20:09.727Z,-2.03
2018-02-20T07:21:09.716Z,-1.96
2018-02-20T07:22:09.703Z,-1.90
2018-02-20T07:23:09.690Z,-2.05
2018-02-20T07:24:09.671Z,-1.93
2018-02-20T07:25:09.672Z,-1.93
2018-02-20T07:26:09.648Z,-1.90
2018-02-20T07:27:09.632Z,-1.96
2018-02-20T07:28:09.623Z,-2.00
2018-02-20T07:29:09.599Z,-1.98
2018-02-20T07:30:09.590Z,-1.81
2018-02-20T07:31:09.575Z,-1.92
2018-02-20T07:32:09.566Z,-1.96
2018-02-20T07:33:09.545Z,-1.81
2018-02-20T07:34:09.532Z,-1.90
2018-02-20T07:35:09.626Z,-1.80
2018-02-20T07:36:09.518Z,-1.80
2018-02-20T07:37:09.492Z,-1.80
2018-02-20T07:38:09.479Z,-1.82
2018-02-20T07:39:09.463Z,-1.80
2018-02-20T07:40:09.447Z,-1.88
2018-02-20T07:41:09.433Z,-1.87
2018-02-20T07:42:09.419Z,-1.75
2018-02-20T07:43:09.401Z,-1.84
2018-02-20T07:44:09.393Z,-1.80
2018-02-20T07:45:09.400Z,-1.77
2018-02-20T07:46:09.368Z,-1.77
2018-02-20T07:47:09.353Z,-1.62
2018-02-20T07:48:09.338Z,-1.72
2018-02-20T07:49:09.355Z,-1.64
2018-02-20T07:50:09.362Z,-1.69
2018-02-20T07:51:09.307Z,-1.62
2018-02-20T07:52:09.285Z,-1.67
2018-02-20T07:53:09.274Z,-1.74
2018-02-20T07:54:09.247Z,-1.80
2018-02-20T07:55:09.247Z,-1.75
2018-02-20T07:56:09.231Z,-1.74
2018-02-20T07:57:09.272Z,-1.80
2018-02-20T07:58:09.203Z,-1.77
2018-02-20T07:59:09.194Z,-1.74
2018-02-20T08:00:09.178Z,-1.74
2018-02-20T08:01:09.164Z,-1.66
2018-02-20T08:02:09.153Z,-1.78
2018-02-20T08:03:09.141Z,-1.77
2018-02-20T08:04:09.122Z,-1.70
2018-02-20T08:05:09.110Z,-1.74
2018-02-20T08:06:09.096Z,-1.72
2018-02-20T08:07:09.085Z,-1.63
2018-02-20T08:08:09.070Z,-1.59
2018-02-20T08:09:09.056Z,-1.67
2018-02-20T08:10:09.055Z,-1.60
2018-02-20T08:11:09.029Z,-1.59
2018-02-20T08:12:09.017Z,-1.63
2018-02-20T08:13:09.003Z,-1.66
2018-02-20T08:14:08.991Z,-1.69
2018-02-20T08:15:08.977Z,-1.67
2018-02-20T08:16:08.961Z,-1.56
2018-02-20T08:17:08.946Z,-1.59
2018-02-20T08:18:08.936Z,-1.62
2018-02-20T08:19:08.914Z,-1.63
2018-02-20T08:20:08.908Z,-1.59
2018-02-20T08:21:08.898Z,-1.64
2018-02-20T08:22:08.884Z,-1.59
2018-02-20T08:23:08.877Z,-1.59
2018-02-20T08:24:08.885Z,-1.60
2018-02-20T08:25:08.846Z,-1.64
2018-02-20T08:26:08.830Z,-1.62
2018-02-20T08:27:08.817Z,-1.64
2018-02-20T08:28:08.802Z,-1.62
2018-02-20T08:29:08.789Z,-1.54
2018-02-20T08:30:08.779Z,-1.53
2018-02-20T08:31:08.765Z,-1.57
2018-02-20T08:32:08.750Z,-1.54
2018-02-20T08:33:08.738Z,-1.57
2018-02-20T08:34:08.725Z,-1.53
2018-02-20T08:35:08.709Z,-1.56
2018-02-20T08:36:08.697Z,-1.54
2018-02-20T08:37:08.683Z,-1.51
2018-02-20T08:38:08.672Z,-1.41
2018-02-20T08:39:08.658Z,-1.43
2018-02-20T08:40:08.642Z,-1.43
2018-02-20T08:41:08.648Z,-1.35
2018-02-20T08:42:08.620Z,-1.43
2018-02-20T08:43:08.608Z,-1.30
2018-02-20T08:44:08.592Z,-1.30
2018-02-20T08:45:08.586Z,-1.36
2018-02-20T08:46:08.560Z,-1.51
2018-02-20T08:47:08.554Z,-1.45
2018-02-20T08:48:08.593Z,-1.54
2018-02-20T08:49:08.529Z,-1.60
2018-02-20T08:50:08.516Z,-1.57
2018-02-20T08:51:08.497Z,-1.46
2018-02-20T08:52:08.494Z,-1.46
2018-02-20T08:53:08.476Z,-1.51
2018-02-20T08:54:08.464Z,-1.51
2018-02-20T08:55:08.447Z,-1.41
2018-02-20T08:56:08.454Z,-1.41
2018-02-20T08:57:08.426Z,-1.39
2018-02-20T08:58:08.420Z,-1.41
2018-02-20T08:59:08.403Z,-1.38
2018-02-20T09:00:08.383Z,-1.33
2018-02-20T09:01:08.373Z,-1.24
2018-02-20T09:02:08.362Z,-1.30
2018-02-20T09:03:08.351Z,-1.36
2018-02-20T09:04:08.336Z,-1.36
2018-02-20T09:05:08.323Z,-1.31
2018-02-20T09:06:08.320Z,-1.30
2018-02-20T09:07:08.302Z,-1.27
2018-02-20T09:08:08.291Z,-1.25
2018-02-20T09:09:08.274Z,-1.28
2018-02-20T09:10:08.262Z,-1.25
2018-02-20T09:11:08.254Z,-1.25
2018-02-20T09:12:08.238Z,-1.20
2018-02-20T09:13:08.270Z,-1.17
2018-02-20T09:14:08.213Z,-1.24
2018-02-20T09:15:08.203Z,-1.18
2018-02-20T09:16:08.187Z,-1.18
2018-02-20T09:17:08.179Z,-1.13
2018-02-20T09:18:08.180Z,-1.25
2018-02-20T09:19:08.149Z,-1.12
2018-02-20T09:20:08.139Z,-1.23
2018-02-20T09:21:08.139Z,-1.15
2018-02-20T09:22:08.133Z,-1.09
2018-02-20T09:23:08.100Z,-1.18
2018-02-20T09:24:08.088Z,-1.17
2018-02-20T09:25:08.082Z,-1.39
2018-02-20T09:26:08.064Z,-1.31
2018-02-20T09:27:08.050Z,-1.25
2018-02-20T09:28:08.040Z,-1.25
2018-02-20T09:29:08.029Z,-1.10
2018-02-20T09:30:08.070Z,-1.13
2018-02-20T09:31:08.003Z,-1.25
2018-02-20T09:32:07.990Z,-1.07
2018-02-20T09:33:07.974Z,-1.09
2018-02-20T09:34:07.967Z,-0.92
2018-02-20T09:35:07.958Z,-1.03
2018-02-20T09:36:07.944Z,-0.89
2018-02-20T09:37:07.931Z,-0.95
2018-02-20T09:38:07.923Z,-1.13
2018-02-20T09:39:07.908Z,-0.95
2018-02-20T09:40:07.894Z,-1.06
2018-02-20T09:41:07.883Z,-1.06
2018-02-20T09:42:07.873Z,-1.09
2018-02-20T09:43:07.886Z,-1.25
2018-02-20T09:44:07.848Z,-1.31
2018-02-20T09:45:07.836Z,-1.23
2018-02-20T09:46:07.822Z,-1.24
2018-02-20T09:47:07.819Z,-1.13
2018-02-20T09:48:07.804Z,-1.09
2018-02-20T09:49:07.788Z,-1.10
2018-02-20T09:50:07.778Z,-1.09
2018-02-20T09:51:07.766Z,-1.20
2018-02-20T09:52:07.757Z,-1.27
2018-02-20T09:53:07.742Z,-0.95
2018-02-20T09:54:07.737Z,-0.87
2018-02-20T09:55:07.718Z,-0.92
2018-02-20T09:56:07.705Z,-0.81
2018-02-20T09:57:07.755Z,-0.86
2018-02-20T09:58:07.686Z,-0.80
2018-02-20T09:59:07.675Z,-0.87
2018-02-20T10:00:07.663Z,-0.81
2018-02-20T10:01:07.651Z,-0.78
2018-02-20T10:02:07.640Z,-0.80
2018-02-20T10:03:07.630Z,-0.66
2018-02-20T10:04:07.616Z,-0.66
2018-02-20T10:05:07.604Z,-0.62
2018-02-20T10:06:07.595Z,-0.84
2018-02-20T10:07:08.273Z,-0.72
2018-02-20T10:08:07.572Z,-0.63
2018-02-20T10:09:07.560Z,-0.45
2018-02-20T10:10:07.571Z,-0.45
2018-02-20T10:11:07.541Z,-0.30
2018-02-20T10:12:07.530Z,-0.37
2018-02-20T10:13:07.518Z,-0.37
2018-02-20T10:14:07.507Z,-0.36
2018-02-20T10:15:07.514Z,-0.42
2018-02-20T10:16:07.509Z,-0.48
2018-02-20T10:17:07.482Z,-0.29
2018-02-20T10:18:07.465Z,-0.34
2018-02-20T10:19:07.457Z,-0.18
2018-02-20T10:20:07.497Z,-0.19
2018-02-20T10:21:07.442Z,-0.29
2018-02-20T10:22:07.428Z,-0.34
2018-02-20T10:23:07.416Z,-0.26
2018-02-20T10:24:07.411Z,-0.44
2018-02-20T10:25:07.411Z,-0.47
2018-02-20T10:26:07.387Z,-0.57
2018-02-20T10:27:07.379Z,-0.55
2018-02-20T10:28:07.369Z,-0.73
2018-02-20T10:29:07.360Z,-0.72
2018-02-20T10:30:07.347Z,-0.77
2018-02-20T10:31:07.337Z,-0.81
2018-02-20T10:32:07.353Z,-0.70
2018-02-20T10:33:07.326Z,-0.75
2018-02-20T10:34:07.309Z,-0.60
2018-02-20T10:35:07.300Z,-0.41
2018-02-20T10:36:07.289Z,-0.52
2018-02-20T10:37:07.283Z,-0.57
2018-02-20T10:38:07.270Z,-0.37
2018-02-20T10:39:07.265Z,-0.30
2018-02-20T10:40:07.252Z,-0.44
2018-02-20T10:41:07.247Z,-0.29
2018-02-20T10:42:07.232Z,-0.45
2018-02-20T10:43:07.230Z,-0.33
2018-02-20T10:44:07.218Z,-0.44
2018-02-20T10:45:07.218Z,-0.52
2018-02-20T10:46:07.195Z,-0.59
2018-02-20T10:47:07.188Z,-0.50
2018-02-20T10:48:07.176Z,-0.62
2018-02-20T10:49:07.168Z,-0.54
2018-02-20T10:50:07.159Z,-0.52
2018-02-20T10:51:07.153Z,-0.29
2018-02-20T10:52:07.144Z,-0.04
2018-02-20T10:53:07.132Z,-0.05
2018-02-20T10:54:07.119Z,-0.04
2018-02-20T10:55:07.115Z,-0.18
2018-02-20T10:56:07.110Z,-0.15
2018-02-20T10:57:07.095Z,-0.08
2018-02-20T10:58:07.090Z,-0.18
2018-02-20T10:59:07.078Z,-0.29
2018-02-20T11:00:07.071Z,-0.19
2018-02-20T11:01:07.080Z,-0.33
2018-02-20T11:02:07.053Z,-0.27
2018-02-20T11:03:07.046Z,-0.16
2018-02-20T11:04:07.034Z,-0.09
2018-02-20T11:05:07.034Z,0.27
2018-02-20T11:06:07.019Z,0.39
2018-02-20T11:07:07.010Z,0.65
2018-02-20T11:08:07.000Z,0.48
2018-02-20T11:09:06.995Z,0.16
2018-02-20T11:10:06.990Z,-0.08
2018-02-20T11:11:06.977Z,-0.11
2018-02-20T11:12:06.973Z,-0.22
2018-02-20T11:13:06.977Z,-0.11
2018-02-20T11:14:06.945Z,-0.22
2018-02-20T11:15:06.945Z,-0.12
2018-02-20T11:16:06.938Z,-0.05
2018-02-20T11:17:06.924Z,0.10
2018-02-20T11:18:06.922Z,-0.09
2018-02-20T11:19:06.912Z,-0.04
2018-02-20T11:20:06.899Z,-0.09
2018-02-20T11:21:06.896Z,-0.04
2018-02-20T11:22:06.890Z,0.10
2018-02-20T11:23:06.878Z,0.00
2018-02-20T11:24:06.870Z,0.10
2018-02-20T11:25:06.862Z,0.28
2018-02-20T11:26:06.856Z,0.30
2018-02-20T11:27:06.846Z,0.13
2018-02-20T11:28:06.841Z,-0.08
2018-02-20T11:29:06.832Z,-0.13
2018-02-20T11:30:06.827Z,-0.15
2018-02-20T11:31:06.820Z,-0.24
2018-02-20T11:32:06.808Z,-0.26
2018-02-20T11:33:06.808Z,-0.01
2018-02-20T11:34:06.802Z,0.21
2018-02-20T11:35:06.788Z,0.10
2018-02-20T11:36:06.778Z,0.05
2018-02-20T11:37:06.773Z,0.00
2018-02-20T11:38:06.756Z,0.09
2018-02-20T11:39:06.756Z,-0.15
2018-02-20T11:40:06.742Z,-0.16
2018-02-20T11:41:06.740Z,-0.06
2018-02-20T11:42:06.734Z,0.24
2018-02-20T11:43:06.733Z,0.20
2018-02-20T11:44:06.721Z,0.25
2018-02-20T11:45:06.714Z,0.31
2018-02-20T11:46:06.706Z,0.20
2018-02-20T11:47:06.698Z,0.13
2018-02-20T11:48:06.692Z,0.27
2018-02-20T11:49:06.748Z,0.05
2018-02-20T11:50:06.678Z,-0.05
2018-02-20T11:51:06.674Z,-0.06
2018-02-20T11:52:06.660Z,-0.12
2018-02-20T11:53:06.654Z,-0.19
2018-02-20T11:54:06.644Z,-0.15
2018-02-20T11:55:06.643Z,-0.16
2018-02-20T11:56:06.622Z,-0.26
2018-02-20T11:57:06.623Z,-0.12
2018-02-20T11:58:06.612Z,-0.06
2018-02-20T11:59:06.608Z,-0.08
2018-02-20T12:00:06.598Z,-0.29
2018-02-20T12:01:06.589Z,-0.11
2018-02-20T12:02:06.584Z,0.23
2018-02-20T12:03:06.576Z,0.12
2018-02-20T12:04:06.568Z,0.02
2018-02-20T12:05:06.566Z,0.24
2018-02-20T12:06:06.557Z,0.49
2018-02-20T12:07:06.561Z,0.58
2018-02-20T12:08:06.543Z,0.60
2018-02-20T12:09:06.526Z,0.57
2018-02-20T12:10:06.511Z,0.33
2018-02-20T12:11:06.514Z,0.20
2018-02-20T12:12:06.503Z,0.30
2018-02-20T12:13:06.492Z,0.10
2018-02-20T12:14:06.487Z,0.07
2018-02-20T12:15:06.483Z,0.09
2018-02-20T12:16:06.477Z,0.30
2018-02-20T12:17:06.463Z,0.23
2018-02-20T12:18:06.453Z,0.27
2018-02-20T12:19:06.451Z,-0.06
2018-02-20T12:20:06.442Z,-0.12
2018-02-20T12:21:06.435Z,0.10
2018-02-20T12:22:06.418Z,0.13
2018-02-20T12:23:06.415Z,-0.01
2018-02-20T12:24:06.413Z,-0.05
2018-02-20T12:25:06.398Z,-0.27
2018-02-20T12:26:06.403Z,-0.24
2018-02-20T12:27:06.386Z,-0.22
2018-02-20T12:28:06.373Z,-0.16
2018-02-20T12:29:06.366Z,-0.23
2018-02-20T12:30:06.361Z,-0.06
2018-02-20T12:31:06.356Z,0.25
2018-02-20T12:32:06.343Z,0.20
2018-02-20T12:33:06.339Z,-0.08
2018-02-20T12:34:06.322Z,0.09
2018-02-20T12:35:06.305Z,0.28
2018-02-20T12:36:06.306Z,0.31
2018-02-20T12:37:06.293Z,0.12
2018-02-20T12:38:06.294Z,0.07
2018-02-20T12:39:06.285Z,0.05
2018-02-20T12:40:06.274Z,0.06
2018-02-20T12:41:06.267Z,-0.04
2018-02-20T12:42:06.267Z,-0.05
2018-02-20T12:43:06.267Z,-0.09
2018-02-20T12:44:06.234Z,-0.08
2018-02-20T12:45:06.231Z,0.09
2018-02-20T12:46:06.224Z,-0.01
2018-02-20T12:47:06.213Z,-0.08
2018-02-20T12:48:06.205Z,-0.24
2018-02-20T12:49:06.222Z,-0.27
2018-02-20T12:50:06.191Z,-0.27
2018-02-20T12:51:06.180Z,-0.27
2018-02-20T12:52:06.171Z,-0.26
2018-02-20T12:53:06.158Z,-0.34
2018-02-20T12:54:06.148Z,-0.27